Time;durP1;ratioP1;P1;durP2;ratioP2;P2;SDS_P1;SDS_P2;PMS_P1;PMS_P2;Temp;Humidity;BMP_temperature;BMP_pressure;BME280_temperature;BME280_humidity;BME280_pressure;Samples;Min_cycle;Max_cycle;Signal;HPM_P1;HPM_P2
2021/05/04 00:00:46;;;;;;;6.65;2.90;;;;;;;4.88;64.27;99849.47;1766192;81;21594;-83
2021/05/04 00:03:15;;;;;;;4.50;2.75;;;;;;;4.88;66.36;99849.47;1738385;81;21212;-83
2021/05/04 00:05:43;;;;;;;3.22;2.20;;;;;;;4.86;66.11;99846.06;1765877;81;21195;-80
2021/05/04 00:08:10;;;;;;;5.37;2.95;;;;;;;4.84;67.29;99850.84;1765462;81;21221;-76
2021/05/04 00:10:38;;;;;;;6.20;2.80;;;;;;;4.82;65.02;99851.31;1765835;81;21140;-77
2021/05/04 00:13:07;;;;;;;5.78;2.50;;;;;;;4.79;65.39;99846.16;1765578;81;21681;-75
2021/05/04 00:15:35;;;;;;;4.33;2.50;;;;;;;4.75;65.13;99845.80;1765599;81;21127;-77
2021/05/04 00:18:04;;;;;;;3.92;2.50;;;;;;;4.72;65.41;99843.25;1765647;81;21333;-76
2021/05/04 00:20:34;;;;;;;4.55;2.50;;;;;;;4.71;65.41;99844.12;1765583;81;21192;-76
2021/05/04 00:23:05;;;;;;;4.50;2.37;;;;;;;4.72;65.18;99851.08;1765652;81;21168;-76
2021/05/04 00:25:33;;;;;;;4.33;2.50;;;;;;;4.69;65.29;99853.72;1763231;81;21176;-77
2021/05/04 00:28:01;;;;;;;5.22;3.20;;;;;;;4.68;65.23;99853.77;1712665;83;21654;-77
2021/05/04 00:30:29;;;;;;;4.45;2.75;;;;;;;4.63;65.38;99853.84;1765766;81;21188;-78
2021/05/04 00:32:57;;;;;;;3.90;2.67;;;;;;;4.62;65.99;99857.32;1759946;80;21186;-78
2021/05/04 00:35:26;;;;;;;4.25;2.33;;;;;;;4.60;65.91;99856.48;1762732;81;21194;-78
2021/05/04 00:37:54;;;;;;;4.40;2.45;;;;;;;4.60;66.56;99865.19;1765968;81;21167;-77
2021/05/04 00:40:24;;;;;;;3.95;2.60;;;;;;;4.57;66.83;99860.45;1765841;81;21188;-78
2021/05/04 00:42:53;;;;;;;4.58;3.12;;;;;;;4.57;67.79;99866.97;1765765;80;21205;-77
2021/05/04 00:45:23;;;;;;;4.17;2.65;;;;;;;4.55;67.73;99861.77;1757782;81;21940;-78
2021/05/04 00:47:52;;;;;;;5.95;2.60;;;;;;;4.54;67.27;99861.82;1693587;82;21253;-77
2021/05/04 00:50:20;;;;;;;3.87;2.62;;;;;;;4.53;67.61;99861.39;1719387;83;21215;-77
2021/05/04 00:52:49;;;;;;;4.40;2.60;;;;;;;4.55;67.46;99860.47;1719649;83;21162;-77
2021/05/04 00:55:17;;;;;;;4.55;2.95;;;;;;;4.55;67.51;99866.14;1719585;83;21608;-81
2021/05/04 00:57:45;;;;;;;3.95;2.65;;;;;;;4.55;67.31;99866.14;1719739;83;21206;-80
2021/05/04 01:00:14;;;;;;;5.80;2.80;;;;;;;4.55;67.69;99864.83;1688991;83;21262;-81
2021/05/04 01:02:43;;;;;;;4.10;3.02;;;;;;;4.53;67.80;99860.08;1719883;82;21229;-80
2021/05/04 01:05:12;;;;;;;4.40;2.70;;;;;;;4.52;67.59;99856.63;1691444;83;21190;-82
2021/05/04 01:07:40;;;;;;;4.75;3.10;;;;;;;4.51;67.75;99856.64;1697001;84;21401;-81
2021/05/04 01:10:10;;;;;;;6.80;2.98;;;;;;;4.49;67.73;99863.20;1696792;84;21667;-81
2021/05/04 01:12:38;;;;;;;4.15;2.98;;;;;;;4.50;68.37;99862.75;1696938;84;21168;-81
2021/05/04 01:15:08;;;;;;;4.50;2.77;;;;;;;4.49;68.52;99864.95;1669046;83;21160;-80
2021/05/04 01:17:36;;;;;;;5.15;2.87;;;;;;;4.49;68.96;99861.05;1697312;84;21183;-83
2021/05/04 01:20:06;;;;;;;5.25;2.65;;;;;;;4.47;69.50;99861.51;1708144;83;21392;-79
2021/05/04 01:22:34;;;;;;;3.50;2.80;;;;;;;4.44;70.17;99855.02;1703022;83;21187;-79
2021/05/04 01:25:06;;;;;;;4.70;2.90;;;;;;;4.40;70.66;99856.38;1708198;83;21203;-80
2021/05/04 01:27:34;;;;;;;6.22;3.45;;;;;;;4.39;70.32;99859.89;1696973;84;21669;-79
2021/05/04 01:30:03;;;;;;;5.22;2.98;;;;;;;4.37;69.42;99859.47;1696849;84;21206;-83
2021/05/04 01:32:32;;;;;;;5.22;2.98;;;;;;;4.35;69.48;99860.81;1720281;83;21611;-83
2021/05/04 01:35:01;;;;;;;3.42;2.72;;;;;;;4.30;69.35;99863.95;1719815;83;21162;-82
2021/05/04 01:37:29;;;;;;;5.28;3.27;;;;;;;4.27;69.72;99867.89;1719851;83;21193;-82
2021/05/04 01:39:58;;;;;;;5.00;2.92;;;;;;;4.25;70.41;99865.74;1719571;83;21186;-82
2021/05/04 01:42:26;;;;;;;9.45;3.27;;;;;;;4.24;69.69;99867.09;1719586;83;21170;-80
2021/05/04 01:44:55;;;;;;;4.95;3.20;;;;;;;4.18;69.40;99861.51;1719292;83;21390;-78
2021/05/04 01:47:24;;;;;;;7.03;3.05;;;;;;;4.16;69.49;99861.55;1719653;83;21724;-82
2021/05/04 01:49:53;;;;;;;3.52;2.67;;;;;;;4.16;69.71;99864.16;1708283;83;21567;-80
2021/05/04 01:52:21;;;;;;;5.17;3.10;;;;;;;4.17;70.45;99870.23;1742384;82;21189;-80
2021/05/04 01:54:49;;;;;;;4.83;2.98;;;;;;;4.15;70.48;99865.47;1742208;82;21184;-79
2021/05/04 01:57:17;;;;;;;5.40;3.12;;;;;;;4.14;70.63;99855.91;1742072;82;21531;-80
2021/05/04 01:59:46;;;;;;;6.58;3.25;;;;;;;4.10;70.78;99861.64;1742180;82;21164;-79
2021/05/04 02:02:14;;;;;;;5.35;3.22;;;;;;;4.10;71.58;99863.39;1742275;82;21205;-79
2021/05/04 02:04:42;;;;;;;5.92;3.27;;;;;;;4.09;71.91;99870.77;1742253;82;21188;-79
2021/05/04 02:07:10;;;;;;;4.60;3.35;;;;;;;4.09;71.70;99874.68;1742149;82;21655;-81
2021/05/04 02:09:40;;;;;;;6.10;3.40;;;;;;;4.06;70.82;99880.80;1742323;82;21386;-81
2021/05/04 02:12:09;;;;;;;5.85;3.25;;;;;;;4.03;71.19;99877.39;1742296;82;21156;-80
2021/05/04 02:14:37;;;;;;;5.83;3.70;;;;;;;4.01;71.06;99884.37;1742306;82;21224;-79
2021/05/04 02:17:06;;;;;;;5.20;3.42;;;;;;;4.02;71.30;99887.37;1742729;82;21841;-81
2021/05/04 02:19:37;;;;;;;5.80;3.40;;;;;;;4.01;71.18;99879.16;1747797;82;21235;-79
2021/05/04 02:22:06;;;;;;;6.65;4.17;;;;;;;3.99;71.05;99881.77;1747849;82;21626;-79
2021/05/04 02:24:34;;;;;;;6.42;4.03;;;;;;;3.99;71.19;99882.62;1747853;82;21210;-78
2021/05/04 02:27:01;;;;;;;7.22;3.87;;;;;;;4.02;71.29;99883.47;1758995;80;21223;-78
2021/05/04 02:29:31;;;;;;;6.10;3.65;;;;;;;4.01;72.03;99888.28;1772923;80;21168;-79
2021/05/04 02:32:01;;;;;;;5.33;3.67;;;;;;;4.03;72.04;99881.30;1768456;80;21163;-77
2021/05/04 02:34:29;;;;;;;6.70;3.75;;;;;;;4.02;71.90;99884.33;1747904;82;21821;-78
2021/05/04 02:36:56;;;;;;;6.33;4.10;;;;;;;4.02;72.51;99886.93;1748398;82;22070;-77
2021/05/04 02:39:25;;;;;;;9.10;4.85;;;;;;;4.02;72.51;99875.66;1748349;82;21504;-77
2021/05/04 02:41:53;;;;;;;6.70;4.80;;;;;;;4.04;73.15;99880.41;1748394;82;21191;-75
2021/05/04 02:44:21;;;;;;;6.95;4.42;;;;;;;4.06;73.32;99876.03;1748292;82;21293;-78
2021/05/04 02:46:50;;;;;;;5.95;3.65;;;;;;;4.07;73.16;99885.56;1751431;80;21381;-73
2021/05/04 02:49:19;;;;;;;6.80;3.92;;;;;;;4.09;73.00;99883.80;1773183;80;21207;-77
2021/05/04 02:51:49;;;;;;;6.55;4.40;;;;;;;4.12;72.77;99878.56;1773412;80;21686;-75
2021/05/04 02:54:20;;;;;;;8.53;5.10;;;;;;;4.16;73.61;99884.13;1772429;80;21717;-74
2021/05/04 02:56:54;;;;;;;7.10;4.45;;;;;;;4.20;73.42;99880.14;1772440;80;21210;-73
2021/05/04 02:59:23;;;;;;;7.35;4.45;;;;;;;4.23;72.75;99885.75;1772542;80;21365;-74
2021/05/04 03:01:51;;;;;;;7.83;4.30;;;;;;;4.24;72.79;99884.89;1761575;80;21693;-74
2021/05/04 03:04:20;;;;;;;7.20;3.80;;;;;;;4.28;72.99;99881.36;1742142;82;21221;-73
2021/05/04 03:06:48;;;;;;;6.12;4.12;;;;;;;4.34;72.69;99885.60;1742015;82;21172;-75
2021/05/04 03:09:16;;;;;;;7.53;4.72;;;;;;;4.38;72.60;99883.38;1741836;82;21215;-74
2021/05/04 03:11:44;;;;;;;8.78;4.67;;;;;;;4.47;72.93;99883.67;1741995;82;21406;-79
2021/05/04 03:14:12;;;;;;;7.62;4.87;;;;;;;4.54;72.83;99890.52;1742047;80;21187;-79
2021/05/04 03:16:40;;;;;;;8.70;4.75;;;;;;;4.68;72.96;99892.89;1753343;80;22223;-79
2021/05/04 03:19:09;;;;;;;8.33;4.80;;;;;;;4.82;73.01;99899.58;1746542;80;21621;-80
2021/05/04 03:21:37;;;;;;;5.92;3.80;;;;;;;5.15;72.25;99899.86;1755042;80;21600;-81
2021/05/04 03:24:09;;;;;;;6.17;4.35;;;;;;;5.61;70.76;99897.69;1741809;80;21482;-79
2021/05/04 03:26:37;;;;;;;6.20;4.22;;;;;;;6.13;70.23;99891.80;1758772;80;21145;-79
2021/05/04 03:29:05;;;;;;;6.80;4.72;;;;;;;6.66;67.44;99901.90;1758007;80;21187;-78
2021/05/04 03:31:34;;;;;;;9.03;4.60;;;;;;;7.10;66.27;99903.38;1757636;80;21208;-80
2021/05/04 03:34:03;;;;;;;7.65;4.25;;;;;;;7.49;64.43;99905.81;1742112;82;21639;-80
2021/05/04 03:36:32;;;;;;;6.25;4.22;;;;;;;7.89;63.25;99907.73;1742357;82;21380;-80
2021/05/04 03:39:01;;;;;;;9.23;4.53;;;;;;;8.24;62.22;99904.53;1742073;82;21572;-78
2021/05/04 03:41:29;;;;;;;5.65;4.12;;;;;;;8.55;59.96;99900.03;1742133;82;21089;-81
2021/05/04 03:44:00;;;;;;;5.92;3.77;;;;;;;8.79;57.67;99900.16;1742214;82;21213;-81
2021/05/04 03:46:27;;;;;;;7.67;4.20;;;;;;;9.06;57.85;99903.59;1741230;80;21217;-73
2021/05/04 03:48:55;;;;;;;6.70;4.50;;;;;;;9.37;57.26;99902.08;1734577;80;22272;-80
2021/05/04 03:51:24;;;;;;;6.15;4.28;;;;;;;9.49;56.13;99899.92;1754904;80;21211;-76
2021/05/04 03:53:52;;;;;;;7.60;3.87;;;;;;;9.67;57.26;99899.25;1760517;80;21155;-77
2021/05/04 03:56:20;;;;;;;9.33;3.98;;;;;;;9.90;55.53;99904.12;1780843;80;21468;-77
2021/05/04 03:58:49;;;;;;;7.10;4.25;;;;;;;9.87;55.28;99899.37;1766400;80;21654;-80
2021/05/04 04:01:19;;;;;;;6.53;4.20;;;;;;;10.03;56.19;99900.96;1759535;80;21188;-80
2021/05/04 04:03:49;;;;;;;5.70;4.47;;;;;;;10.32;55.69;99896.81;1750256;82;21222;-75
2021/05/04 04:06:17;;;;;;;5.42;4.05;;;;;;;10.57;53.83;99901.49;1754475;80;21202;-78
2021/05/04 04:08:48;;;;;;;6.72;4.28;;;;;;;10.86;53.35;99902.09;1755575;80;21228;-79
2021/05/04 04:11:15;;;;;;;6.78;3.67;;;;;;;11.11;51.95;99901.44;1764218;80;21724;-77
2021/05/04 04:13:45;;;;;;;8.15;3.72;;;;;;;11.44;50.48;99899.57;1750258;82;21339;-79
2021/05/04 04:16:13;;;;;;;5.65;3.90;;;;;;;11.58;48.34;99904.23;1750005;82;21265;-79
2021/05/04 04:18:40;;;;;;;9.70;3.98;;;;;;;11.52;48.30;99907.13;1753534;80;21651;-79
2021/05/04 04:21:08;;;;;;;5.53;4.00;;;;;;;11.50;48.32;99901.95;1756789;80;21189;-78
2021/05/04 04:23:36;;;;;;;6.50;4.00;;;;;;;11.54;48.07;99907.92;1750205;82;21194;-78
2021/05/04 04:26:03;;;;;;;6.10;3.95;;;;;;;11.69;47.54;99904.61;1759582;80;21360;-77
2021/05/04 04:28:35;;;;;;;5.60;3.65;;;;;;;11.91;47.58;99906.28;1762240;80;21154;-78
2021/05/04 04:31:03;;;;;;;6.20;3.95;;;;;;;11.92;47.22;99911.50;1784103;80;21178;-79
2021/05/04 04:33:31;;;;;;;7.15;4.28;;;;;;;11.96;47.57;99906.92;1756077;80;21187;-78
2021/05/04 04:35:59;;;;;;;5.62;3.77;;;;;;;12.14;47.35;99903.89;1754518;80;21115;-78
2021/05/04 04:38:27;;;;;;;6.55;4.30;;;;;;;12.27;46.98;99903.72;1762853;80;21450;-78
2021/05/04 04:40:55;;;;;;;6.92;4.10;;;;;;;12.31;46.79;99907.92;1763783;80;21626;-79
2021/05/04 04:43:24;;;;;;;6.72;4.30;;;;;;;12.53;48.38;99912.16;1762134;80;21430;-76
2021/05/04 04:45:51;;;;;;;7.33;4.17;;;;;;;12.70;45.95;99901.64;1759184;80;21190;-80
2021/05/04 04:48:19;;;;;;;6.90;4.05;;;;;;;12.95;46.55;99901.27;1750323;82;21218;-78
2021/05/04 04:50:48;;;;;;;5.30;3.92;;;;;;;13.33;45.59;99905.56;1744170;82;21206;-79
2021/05/04 04:53:17;;;;;;;7.17;4.03;;;;;;;13.65;43.36;99895.92;1747591;82;21311;-78
2021/05/04 04:55:45;;;;;;;7.72;3.98;;;;;;;13.84;42.70;99905.05;1760382;80;21112;-78
2021/05/04 04:58:13;;;;;;;4.50;3.65;;;;;;;14.15;42.34;99903.36;1761526;80;21170;-77
2021/05/04 05:00:41;;;;;;;5.92;3.90;;;;;;;14.31;41.10;99908.21;1772758;80;21468;-78
2021/05/04 05:03:09;;;;;;;6.62;4.35;;;;;;;14.13;40.97;99911.89;1761560;80;22669;-78
2021/05/04 05:05:39;;;;;;;7.25;4.45;;;;;;;14.23;41.89;99910.42;1772923;80;21143;-80
2021/05/04 05:08:07;;;;;;;6.08;4.12;;;;;;;14.40;41.91;99918.30;1773014;80;21658;-77
2021/05/04 05:10:35;;;;;;;6.65;4.22;;;;;;;14.40;41.79;99918.30;1761527;80;21223;-78
2021/05/04 05:13:04;;;;;;;5.67;3.98;;;;;;;14.53;41.42;99914.46;1755548;80;21227;-77
2021/05/04 05:15:37;;;;;;;5.00;3.90;;;;;;;14.64;41.89;99919.19;1755602;80;21196;-79
2021/05/04 05:18:04;;;;;;;7.12;4.33;;;;;;;15.01;41.27;99922.36;1751852;80;22007;-79
2021/05/04 05:20:35;;;;;;;8.58;4.10;;;;;;;15.13;41.43;99932.23;1694910;83;21226;-79
2021/05/04 05:23:03;;;;;;;7.05;3.90;;;;;;;15.11;41.82;99934.13;1720247;82;21165;-79
2021/05/04 05:25:31;;;;;;;7.35;4.45;;;;;;;15.08;40.53;99939.62;1691128;83;21212;-79
2021/05/04 05:27:59;;;;;;;6.20;3.95;;;;;;;14.72;40.75;99933.32;1701117;83;21789;-79
2021/05/04 05:30:27;;;;;;;6.20;3.70;;;;;;;14.32;41.20;99926.28;1701972;83;21115;-77
2021/05/04 05:32:55;;;;;;;6.53;4.20;;;;;;;13.97;42.20;99931.25;1709956;82;21156;-76
2021/05/04 05:35:23;;;;;;;6.40;4.35;;;;;;;13.97;41.65;99933.05;1716764;82;21167;-79
2021/05/04 05:37:51;;;;;;;8.55;4.90;;;;;;;13.78;42.14;99941.98;1761914;80;21148;-79
2021/05/04 05:40:19;;;;;;;6.47;4.30;;;;;;;13.81;42.30;99939.63;1756590;80;22011;-78
2021/05/04 05:42:47;;;;;;;8.40;4.60;;;;;;;13.77;42.76;99939.41;1763819;80;21192;-78
2021/05/04 05:45:15;;;;;;;8.08;4.55;;;;;;;13.33;42.88;99941.27;1763352;80;21200;-76
2021/05/04 05:47:43;;;;;;;6.67;3.87;;;;;;;13.17;43.46;99945.13;1736580;81;21201;-77
2021/05/04 05:50:12;;;;;;;12.07;5.60;;;;;;;13.26;43.91;99941.16;1728846;81;21201;-79
2021/05/04 05:52:40;;;;;;;9.00;4.50;;;;;;;13.63;44.42;99941.45;1728844;82;21348;-78
2021/05/04 05:55:10;;;;;;;8.03;4.20;;;;;;;13.91;42.89;99936.86;1735578;82;21213;-80
2021/05/04 05:57:38;;;;;;;6.83;4.22;;;;;;;14.02;42.47;99933.17;1729501;80;21628;-80
2021/05/04 06:00:07;;;;;;;7.22;4.22;;;;;;;14.34;42.03;99945.12;1742458;82;21222;-80
2021/05/04 06:02:38;;;;;;;7.70;4.08;;;;;;;14.70;40.64;99936.08;1748904;81;21199;-78
2021/05/04 06:05:07;;;;;;;5.92;3.83;;;;;;;14.81;41.30;99950.02;1749826;81;22340;-80
2021/05/04 06:07:35;;;;;;;7.92;4.45;;;;;;;14.92;40.09;99941.46;1712731;83;21230;-79
2021/05/04 06:10:04;;;;;;;6.95;4.45;;;;;;;15.12;39.78;99942.48;1729639;82;21615;-79
2021/05/04 06:12:33;;;;;;;6.15;4.55;;;;;;;15.25;39.48;99943.47;1724435;82;21645;-78
2021/05/04 06:15:01;;;;;;;6.58;4.10;;;;;;;15.10;39.72;99945.21;1749711;81;21414;-79
2021/05/04 06:17:30;;;;;;;7.22;4.40;;;;;;;14.89;39.73;99946.00;1745952;82;21153;-78
2021/05/04 06:20:00;;;;;;;5.78;4.08;;;;;;;14.36;40.14;99951.19;1742980;82;21223;-78
2021/05/04 06:22:28;;;;;;;8.35;4.65;;;;;;;13.63;41.79;99943.62;1752143;81;21207;-79
2021/05/04 06:24:56;;;;;;;5.40;4.03;;;;;;;13.22;42.97;99945.73;1749377;81;21202;-80
2021/05/04 06:27:24;;;;;;;11.20;5.03;;;;;;;13.25;43.75;99948.25;1694801;83;21206;-80
2021/05/04 06:29:51;;;;;;;5.92;4.50;;;;;;;13.17;43.66;99953.05;1742099;82;21834;-79
2021/05/04 06:32:24;;;;;;;5.78;4.60;;;;;;;13.37;44.51;99937.06;1727345;82;21200;-81
2021/05/04 06:34:49;;;;;;;8.13;4.37;;;;;;;13.75;42.79;99938.15;1725304;82;21168;-79
2021/05/04 06:37:17;;;;;;;6.55;4.33;;;;;;;14.05;42.36;99938.77;1746743;82;21151;-79
2021/05/04 06:39:45;;;;;;;6.67;4.40;;;;;;;13.99;42.31;99934.67;1746524;82;21194;-81
2021/05/04 06:42:14;;;;;;;8.20;4.75;;;;;;;13.92;42.60;99933.30;1733089;82;21326;-79
2021/05/04 06:44:42;;;;;;;6.78;4.03;;;;;;;14.19;43.00;99935.36;1746312;82;21175;-79
2021/05/04 06:47:11;;;;;;;5.42;4.15;;;;;;;14.48;41.21;99939.05;1739997;82;21669;-78
2021/05/04 06:49:41;;;;;;;8.65;4.50;;;;;;;14.56;39.62;99943.94;1741668;81;21179;-79
2021/05/04 06:52:09;;;;;;;5.42;4.00;;;;;;;14.65;40.57;99946.06;1758766;80;21200;-78
2021/05/04 06:54:38;;;;;;;5.17;3.75;;;;;;;14.86;39.28;99942.20;1743085;80;21813;-77
2021/05/04 06:57:06;;;;;;;6.47;4.12;;;;;;;15.12;39.08;99945.13;1763051;80;21224;-79
2021/05/04 06:59:34;;;;;;;6.15;3.87;;;;;;;15.42;38.40;99944.26;1772721;80;21700;-79
2021/05/04 07:02:02;;;;;;;7.22;3.60;;;;;;;15.59;38.25;99942.75;1732651;82;21626;-79
2021/05/04 07:04:31;;;;;;;5.80;3.85;;;;;;;15.81;37.59;99944.14;1751274;80;21563;-79
2021/05/04 07:06:59;;;;;;;7.60;4.33;;;;;;;15.84;36.86;99947.92;1726967;82;21423;-79
2021/05/04 07:09:27;;;;;;;5.30;3.77;;;;;;;15.86;37.30;99954.00;1769841;80;21158;-80
2021/05/04 07:14:23;;;;;;;8.48;4.60;;;;;;;15.76;36.88;99956.82;1788572;78;22551;-79
2021/05/04 07:16:51;;;;;;;5.28;3.72;;;;;;;15.44;37.07;99964.45;1765340;80;21178;-79
2021/05/04 07:19:21;;;;;;;15.58;6.35;;;;;;;15.16;37.33;99959.93;1765859;80;21903;-79
2021/05/04 07:21:49;;;;;;;4.62;3.25;;;;;;;14.58;39.91;99964.11;1760028;80;21150;-78
2021/05/04 07:24:17;;;;;;;6.40;3.60;;;;;;;13.94;38.82;99964.95;1763652;80;21229;-76
2021/05/04 07:26:45;;;;;;;8.25;4.20;;;;;;;13.43;40.03;99975.55;1759790;80;21196;-74
2021/05/04 07:29:13;;;;;;;10.20;5.15;;;;;;;13.12;41.07;99971.80;1766209;80;21183;-75
2021/05/04 07:31:43;;;;;;;6.95;4.10;;;;;;;12.78;42.24;99980.52;1764169;80;22322;-77
2021/05/04 07:34:11;;;;;;;5.53;3.90;;;;;;;12.90;42.34;99980.39;1760782;80;21173;-80
2021/05/04 07:36:39;;;;;;;9.25;4.35;;;;;;;13.03;42.18;99973.58;1766302;80;21215;-78
2021/05/04 07:39:07;;;;;;;7.05;3.42;;;;;;;13.13;41.50;99973.97;1765817;80;21202;-74
2021/05/04 07:41:36;;;;;;;7.58;3.70;;;;;;;13.22;41.28;99980.95;1755805;81;21174;-74
2021/05/04 07:44:05;;;;;;;6.53;3.67;;;;;;;13.11;41.28;99982.44;1759675;80;22317;-73
2021/05/04 07:46:33;;;;;;;5.70;3.75;;;;;;;13.12;41.22;99979.72;1756070;79;21211;-74
2021/05/04 07:49:02;;;;;;;6.65;3.75;;;;;;;13.38;41.04;99972.29;1767795;80;21162;-73
2021/05/04 07:51:33;;;;;;;8.15;3.60;;;;;;;13.58;40.69;99945.66;1756000;79;21181;-74
2021/05/04 07:54:00;;;;;;;10.82;3.62;;;;;;;14.17;39.70;99969.02;1727067;81;21147;-74
2021/05/04 07:56:28;;;;;;;5.60;3.90;;;;;;;14.20;38.91;99976.81;1722036;82;21397;-74
2021/05/04 07:58:59;;;;;;;7.45;3.77;;;;;;;14.35;39.16;99975.95;1723360;82;21202;-76
2021/05/04 08:01:27;;;;;;;6.22;3.60;;;;;;;14.79;38.54;99975.31;1717378;82;21205;-74
2021/05/04 08:03:55;;;;;;;5.67;3.15;;;;;;;15.21;37.23;99964.97;1725496;82;21194;-75
2021/05/04 08:06:24;;;;;;;6.92;4.15;;;;;;;15.63;36.66;99974.80;1744189;81;21200;-74
2021/05/04 08:08:53;;;;;;;3.30;2.20;;;;;;;15.96;35.50;99974.19;1733425;81;22290;-74
2021/05/04 08:11:22;;;;;;;4.53;3.10;;;;;;;16.21;34.82;99958.91;1730465;81;21698;-74
2021/05/04 08:13:50;;;;;;;4.90;3.70;;;;;;;15.99;34.77;99981.52;1712673;83;21640;-74
2021/05/04 08:16:18;;;;;;;4.95;3.00;;;;;;;15.64;35.34;99980.48;1758155;80;21208;-75
2021/05/04 08:18:51;;;;;;;5.22;3.00;;;;;;;15.04;36.34;99970.75;1748933;80;21200;-74
2021/05/04 08:21:20;;;;;;;3.58;2.65;;;;;;;14.22;37.30;99977.11;1747311;80;21389;-75
2021/05/04 08:23:49;;;;;;;4.15;3.15;;;;;;;13.64;38.79;99989.02;1742637;82;21708;-74
2021/05/04 08:26:16;;;;;;;6.00;3.45;;;;;;;13.21;39.97;99987.20;1743491;80;21693;-74
2021/05/04 08:28:45;;;;;;;4.22;3.12;;;;;;;13.18;40.22;100003.22;1772908;80;21251;-73
2021/05/04 08:31:14;;;;;;;5.87;3.20;;;;;;;12.96;40.50;99999.92;1772855;80;21179;-73
2021/05/04 08:33:42;;;;;;;4.72;3.40;;;;;;;12.60;41.42;99993.67;1731950;80;21362;-74
2021/05/04 08:36:11;;;;;;;3.50;2.83;;;;;;;12.26;42.79;99990.47;1731216;82;21192;-73
2021/05/04 08:38:40;;;;;;;5.10;3.27;;;;;;;12.17;42.72;99999.66;1731511;82;21203;-74
2021/05/04 08:41:08;;;;;;;4.45;3.08;;;;;;;12.52;41.68;99998.95;1731256;81;21191;-73
2021/05/04 08:43:38;;;;;;;6.22;3.00;;;;;;;12.91;40.13;100000.15;1731538;81;21191;-74
2021/05/04 08:46:06;;;;;;;3.10;2.42;;;;;;;13.21;39.30;99996.92;1731392;82;21224;-74
2021/05/04 08:48:34;;;;;;;4.65;2.75;;;;;;;13.60;38.51;99999.36;1731565;82;21188;-74
2021/05/04 08:51:02;;;;;;;3.42;2.60;;;;;;;13.74;38.31;99992.50;1740045;80;21147;-73
2021/05/04 08:53:32;;;;;;;5.00;3.47;;;;;;;13.59;38.58;99989.70;1753366;80;21634;-74
2021/05/04 08:56:02;;;;;;;3.85;2.47;;;;;;;13.20;39.19;99992.11;1751869;80;21159;-73
2021/05/04 08:58:31;;;;;;;4.05;2.70;;;;;;;12.63;40.40;100011.20;1751059;80;21954;-74
2021/05/04 09:01:02;;;;;;;4.78;2.98;;;;;;;12.33;41.41;100011.70;1742498;80;21175;-73
2021/05/04 09:11:30;;;;;;;6.95;3.20;;;;;;;11.44;43.65;100036.69;1811127;79;21359;-74
2021/05/04 09:16:52;;;;;;;4.95;3.33;;;;;;;11.32;44.66;100024.03;1787938;79;21169;-74
2021/05/04 09:19:36;;;;;;;4.45;3.42;;;;;;;11.22;44.85;100025.31;1799500;79;21174;-74
2021/05/04 09:21:53;;;;;;;6.37;3.33;;;;;;;10.99;45.36;100031.05;1812886;79;21602;-74
2021/05/04 09:24:25;;;;;;;5.65;3.40;;;;;;;10.81;46.26;100023.89;1812584;79;21185;-73
2021/05/04 09:27:04;;;;;;;4.65;3.02;;;;;;;10.49;46.67;100026.03;1793231;79;21135;-75
2021/05/04 09:29:36;;;;;;;10.88;4.40;;;;;;;10.42;47.28;100028.46;1788647;79;21492;-73
2021/05/04 09:32:20;;;;;;;13.28;5.65;;;;;;;10.49;48.18;100032.61;1796018;79;21178;-74
2021/05/04 09:35:01;;;;;;;6.37;4.40;;;;;;;10.47;49.23;100022.12;1805156;79;21199;-74
2021/05/04 09:37:40;;;;;;;11.93;5.37;;;;;;;10.43;48.08;100018.35;1808969;77;21459;-74
2021/05/04 09:40:28;;;;;;;8.70;3.83;;;;;;;10.35;48.58;100021.72;1801616;79;21194;-74
2021/05/04 09:43:15;;;;;;;4.70;3.10;;;;;;;10.24;47.99;100020.33;1798521;77;21103;-74
2021/05/04 09:45:53;;;;;;;12.63;4.47;;;;;;;10.15;48.14;100021.98;1801143;79;21123;-74
2021/05/04 09:48:35;;;;;;;7.55;4.55;;;;;;;10.35;48.10;100015.14;1799278;78;21087;-73
2021/05/04 09:51:12;;;;;;;8.25;5.30;;;;;;;10.75;48.16;100012.30;1806830;79;21351;-73
2021/05/04 09:56:34;;;;;;;5.72;3.02;;;;;;;11.28;45.46;100006.61;1794945;78;21449;-75
2021/05/04 09:59:02;;;;;;;4.78;2.75;;;;;;;11.45;44.27;100008.06;1762249;80;21178;-74
2021/05/04 10:01:31;;;;;;;12.65;3.30;;;;;;;11.82;44.10;99991.95;1769543;80;21115;-74
2021/05/04 10:04:00;;;;;;;7.78;3.55;;;;;;;12.18;42.82;100007.11;1783110;80;21176;-74
2021/05/04 10:06:29;;;;;;;4.65;2.80;;;;;;;12.58;42.37;99994.68;1750395;80;21202;-74
2021/05/04 10:08:57;;;;;;;4.70;2.80;;;;;;;13.12;41.33;99998.23;1783211;80;21115;-74
2021/05/04 10:11:25;;;;;;;4.42;2.67;;;;;;;13.70;39.59;99984.33;1783444;80;21197;-73
2021/05/04 10:13:56;;;;;;;4.05;2.58;;;;;;;14.16;37.52;99991.16;1757068;79;21142;-74
2021/05/04 10:16:30;;;;;;;8.83;3.00;;;;;;;14.08;37.29;99986.72;1752340;81;21428;-74
2021/05/04 10:19:02;;;;;;;4.10;2.37;;;;;;;13.69;38.01;99979.52;1718614;82;21210;-74
2021/05/04 10:21:31;;;;;;;5.75;2.70;;;;;;;13.47;37.63;99982.41;1701140;84;21189;-75
2021/05/04 10:23:59;;;;;;;2.45;1.82;;;;;;;13.27;38.66;99982.52;1758573;80;21175;-75
2021/05/04 10:26:29;;;;;;;4.22;2.65;;;;;;;13.18;38.47;99980.75;1778751;80;21167;-74
2021/05/04 10:29:04;;;;;;;4.85;2.72;;;;;;;13.08;37.58;99986.56;1778305;80;22687;-73
2021/05/04 10:31:40;;;;;;;5.53;3.30;;;;;;;13.04;38.05;99981.03;1732536;82;21147;-72
2021/05/04 10:34:32;;;;;;;6.00;3.10;;;;;;;13.11;38.59;99993.01;1724128;82;21146;-73
2021/05/04 10:37:17;;;;;;;7.65;3.52;;;;;;;12.91;38.89;100000.63;1771003;80;21170;-73
2021/05/04 10:39:46;;;;;;;13.38;7.58;;;;;;;12.77;39.99;99995.53;1768496;80;21220;-73
2021/05/04 10:42:22;;;;;;;5.67;3.27;;;;;;;12.80;41.22;99991.41;1755771;80;21171;-73
2021/05/04 10:45:03;;;;;;;19.00;6.80;;;;;;;12.97;40.89;99987.08;1867045;76;28581;-74
2021/05/04 10:47:46;;;;;;;8.73;4.60;;;;;;;13.09;41.65;99971.95;1840539;77;21444;-73
2021/05/04 10:50:23;;;;;;;3.35;2.35;;;;;;;13.36;39.91;99978.13;1847908;75;21803;-72
2021/05/04 10:53:03;;;;;;;5.47;2.50;;;;;;;13.81;38.67;99975.36;1802995;78;21207;-74
2021/05/04 10:55:58;;;;;;;5.30;2.20;;;;;;;14.09;37.56;99964.62;1778309;79;21148;-73
2021/05/04 10:58:30;;;;;;;6.92;3.83;;;;;;;14.35;36.07;99975.95;1770290;80;21194;-73
2021/05/04 11:01:09;;;;;;;6.20;3.10;;;;;;;14.29;36.38;99964.39;1766688;80;21159;-73
2021/05/04 11:03:45;;;;;;;6.10;3.08;;;;;;;14.23;37.97;99972.66;1759590;80;21417;-72
2021/05/04 11:06:30;;;;;;;4.28;2.62;;;;;;;14.40;36.68;99973.92;1770872;80;21590;-74
2021/05/04 11:09:09;;;;;;;3.27;2.10;;;;;;;14.55;36.18;99966.09;1756150;80;21673;-73
2021/05/04 11:11:42;;;;;;;5.78;2.40;;;;;;;14.62;35.93;99964.80;1758368;80;21198;-73
2021/05/04 11:14:20;;;;;;;3.55;2.15;;;;;;;14.62;35.85;99969.63;1761799;80;21190;-77
2021/05/04 11:17:05;;;;;;;6.33;3.47;;;;;;;14.47;35.75;99975.30;1778939;79;21176;-79
2021/05/04 11:19:39;;;;;;;5.00;3.40;;;;;;;14.42;37.30;99980.00;1758255;80;21183;-78
2021/05/04 11:22:16;;;;;;;7.05;2.65;;;;;;;14.41;37.82;99978.75;1778188;80;21178;-79
2021/05/04 11:24:50;;;;;;;8.17;2.73;;;;;;;14.63;37.21;99966.50;1788407;79;21171;-79
2021/05/04 11:27:23;;;;;;;4.28;2.58;;;;;;;14.78;35.10;99971.41;1791024;78;21142;-79
2021/05/04 11:29:53;;;;;;;3.70;2.17;;;;;;;14.79;35.24;99975.31;1763316;80;21823;-78
2021/05/04 11:32:43;;;;;;;5.42;2.40;;;;;;;15.08;34.06;99970.97;1764215;80;21167;-78
2021/05/04 11:35:11;;;;;;;6.60;2.22;;;;;;;15.40;33.52;99962.91;1784411;79;21625;-78
2021/05/04 11:37:50;;;;;;;3.05;2.30;;;;;;;15.53;33.81;99959.06;1784524;79;21195;-76
2021/05/04 11:40:24;;;;;;;3.58;2.62;;;;;;;15.62;33.70;99959.84;1785885;79;21184;-81
2021/05/04 11:43:02;;;;;;;7.70;3.15;;;;;;;15.61;33.64;99964.75;1783499;79;22203;-80
2021/05/04 11:45:32;;;;;;;8.28;2.62;;;;;;;15.52;34.83;99964.83;1787509;79;21186;-78
2021/05/04 11:48:06;;;;;;;3.80;2.42;;;;;;;15.49;34.32;99963.69;1782927;79;21136;-79
2021/05/04 11:50:37;;;;;;;8.00;2.95;;;;;;;15.61;33.70;99950.15;1791940;79;21202;-77
2021/05/04 11:53:07;;;;;;;11.35;1.90;;;;;;;15.67;33.11;99953.77;1803978;78;21579;-82
2021/05/04 11:55:47;;;;;;;4.20;2.80;;;;;;;15.63;32.75;99948.73;1788523;79;21199;-80
2021/05/04 11:58:22;;;;;;;3.77;2.10;;;;;;;15.60;33.69;99951.11;1788297;79;21159;-79
2021/05/04 12:01:04;;;;;;;2.75;2.05;;;;;;;15.97;32.38;99943.56;1787312;79;21182;-81
2021/05/04 12:03:33;;;;;;;5.92;2.12;;;;;;;15.98;31.89;99950.57;1785935;79;21162;-81